Time,TemperatureF,DewpointF,PressureIn,WindDirection,WindDirectionDegrees,WindSpeedMPH,WindSpeedGustMPH,Humidity,HourlyPrecipIn,Conditions,Clouds,dailyrainin,SoftwareType,DateUTC
2013-03-09 00:12:00,57.2,49.7,30.00,NE,45,2.2,-999.0,76,-99.99,,,0.00,Acu-Link.com,2013-03-09 05:12:00,
2013-03-09 00:27:00,56.8,50.0,30.00,NE,45,2.2,-999.0,78,-99.99,,,0.00,Acu-Link.com,2013-03-09 05:27:00,
2013-03-09 00:42:00,56.7,50.6,30.00,NE,45,1.7,-999.0,80,-99.99,,,0.00,Acu-Link.com,2013-03-09 05:42:00,
2013-03-09 00:57:00,56.3,50.5,30.00,NE,45,0.0,-999.0,81,-99.99,,,0.00,Acu-Link.com,2013-03-09 05:57:00,
2013-03-09 01:12:00,55.8,50.7,30.00,NE,45,2.7,-999.0,83,-99.99,,,0.00,Acu-Link.com,2013-03-09 06:12:00,
2013-03-09 01:27:00,55.8,50.4,30.01,NE,45,1.7,-999.0,82,-99.99,,,0.00,Acu-Link.com,2013-03-09 06:27:00,
2013-03-09 01:42:00,55.8,50.7,30.00,NE,45,2.7,-999.0,83,-99.99,,,0.00,Acu-Link.com,2013-03-09 06:42:00,
2013-03-09 01:58:00,55.8,51.0,30.00,NE,45,1.7,-999.0,84,-99.99,,,0.00,Acu-Link.com,2013-03-09 06:58:00,
2013-03-09 02:13:00,55.8,51.7,29.99,NE,45,1.7,-999.0,86,-99.99,,,0.00,Acu-Link.com,2013-03-09 07:13:00,
2013-03-09 02:28:00,55.6,51.5,29.99,NE,45,2.7,-999.0,86,-99.99,,,0.00,Acu-Link.com,2013-03-09 07:28:00,
2013-03-09 02:43:00,55.2,51.4,29.98,NE,45,0.0,-999.0,87,-99.99,,,0.00,Acu-Link.com,2013-03-09 07:43:00,
2013-03-09 02:58:00,54.7,51.5,29.98,NE,45,0.0,-999.0,89,-99.99,,,0.00,Acu-Link.com,2013-03-09 07:58:00,
2013-03-09 03:13:00,54.0,51.4,29.97,NE,45,0.0,-999.0,91,-99.99,,,0.00,Acu-Link.com,2013-03-09 08:13:00,
2013-03-09 03:28:00,54.3,52.0,29.98,NE,45,0.0,-999.0,92,-99.99,,,0.00,Acu-Link.com,2013-03-09 08:28:00,
2013-03-09 03:43:00,54.3,51.7,29.97,NE,45,1.7,-999.0,91,-99.99,,,0.00,Acu-Link.com,2013-03-09 08:43:00,
2013-03-09 03:58:00,54.3,52.0,29.97,NE,45,2.7,-999.0,92,-99.99,,,0.00,Acu-Link.com,2013-03-09 08:58:00,
2013-03-09 04:14:00,54.7,51.8,29.98,NE,45,1.7,-999.0,90,-99.99,,,0.00,Acu-Link.com,2013-03-09 09:14:00,
2013-03-09 04:29:00,54.9,52.0,29.97,NE,45,2.2,-999.0,90,-99.99,,,0.00,Acu-Link.com,2013-03-09 09:29:00,
2013-03-09 04:44:00,54.9,52.3,29.97,NE,45,1.1,-999.0,91,-99.99,,,0.00,Acu-Link.com,2013-03-09 09:44:00,
2013-03-09 04:59:00,54.9,52.0,29.98,NE,45,2.7,-999.0,90,-99.99,,,0.00,Acu-Link.com,2013-03-09 09:59:00,
2013-03-09 05:14:00,55.0,52.1,29.98,NE,45,1.1,-999.0,90,-99.99,,,0.00,Acu-Link.com,2013-03-09 10:14:00,
2013-03-09 05:29:00,55.4,52.2,29.98,NE,45,3.2,-999.0,89,-99.99,,,0.00,Acu-Link.com,2013-03-09 10:29:00,
2013-03-09 05:44:00,55.0,52.1,29.99,NE,45,2.2,-999.0,90,-99.99,,,0.00,Acu-Link.com,2013-03-09 10:44:00,
2013-03-09 05:59:00,54.9,52.3,29.99,NE,45,2.7,-999.0,91,-99.99,,,0.00,Acu-Link.com,2013-03-09 10:59:00,
2013-03-09 06:14:00,54.7,52.4,30.00,NNW,337,3.2,-999.0,92,-99.99,,,0.00,Acu-Link.com,2013-03-09 11:14:00,
2013-03-09 06:30:00,54.5,52.2,30.00,NNW,337,2.2,-999.0,92,-99.99,,,0.00,Acu-Link.com,2013-03-09 11:30:00,
2013-03-09 06:45:00,54.3,52.3,30.01,NNW,337,3.2,-999.0,93,-99.99,,,0.00,Acu-Link.com,2013-03-09 11:45:00,
2013-03-09 07:00:00,54.7,52.7,30.00,NNW,337,2.7,-999.0,93,-99.99,,,0.00,Acu-Link.com,2013-03-09 12:00:00,
2013-03-09 07:15:00,55.8,53.2,30.02,NNW,337,2.2,-999.0,91,-99.99,,,0.00,Acu-Link.com,2013-03-09 12:15:00,
2013-03-09 07:30:00,56.8,53.6,30.02,NNW,337,3.2,-999.0,89,-99.99,,,0.00,Acu-Link.com,2013-03-09 12:30:00,
2013-03-09 07:45:00,58.6,53.8,30.03,WNW,292,2.7,-999.0,84,-99.99,,,0.00,Acu-Link.com,2013-03-09 12:45:00,
2013-03-09 08:00:00,59.9,54.1,30.04,NW,315,4.2,-999.0,81,-99.99,,,0.00,Acu-Link.com,2013-03-09 13:00:00,
2013-03-09 08:15:00,62.4,54.7,30.03,NE,45,2.7,-999.0,76,-99.99,,,0.00,Acu-Link.com,2013-03-09 13:15:00,
2013-03-09 08:30:00,63.1,54.7,30.04,NNE,22,3.7,-999.0,74,-99.99,,,0.00,Acu-Link.com,2013-03-09 13:30:00,
2013-03-09 08:46:00,65.1,55.1,30.05,NNW,337,4.2,-999.0,70,-99.99,,,0.00,Acu-Link.com,2013-03-09 13:46:00,
2013-03-09 09:01:00,66.9,55.6,30.04,NNE,22,3.7,-999.0,67,-99.99,,,0.00,Acu-Link.com,2013-03-09 14:01:00,
2013-03-09 09:16:00,68.9,55.8,30.05,NE,45,6.3,-999.0,63,-99.99,,,0.00,Acu-Link.com,2013-03-09 14:16:00,
2013-03-09 09:31:00,70.2,55.7,30.04,NE,45,3.2,-999.0,60,-99.99,,,0.00,Acu-Link.com,2013-03-09 14:31:00,
2013-03-09 09:46:00,72.3,55.7,30.04,ENE,67,3.7,-999.0,56,-99.99,,,0.00,Acu-Link.com,2013-03-09 14:46:00,
2013-03-09 10:01:00,71.6,55.1,30.04,NE,45,15.0,-999.0,56,-99.99,,,0.00,Acu-Link.com,2013-03-09 15:01:00,
2013-03-09 10:16:00,72.5,55.4,30.05,East,90,8.3,-999.0,55,-99.99,,,0.00,Acu-Link.com,2013-03-09 15:16:00,
2013-03-09 10:31:00,72.9,55.3,30.05,ENE,67,4.7,-999.0,54,-99.99,,,0.00,Acu-Link.com,2013-03-09 15:31:00,
2013-03-09 10:46:00,73.8,55.6,30.05,ENE,67,5.3,-999.0,53,-99.99,,,0.00,Acu-Link.com,2013-03-09 15:46:00,
2013-03-09 11:02:00,73.4,55.2,30.05,ESE,112,6.8,-999.0,53,-99.99,,,0.00,Acu-Link.com,2013-03-09 16:02:00,
2013-03-09 11:17:00,74.3,54.4,30.04,NE,45,11.9,-999.0,50,-99.99,,,0.00,Acu-Link.com,2013-03-09 16:17:00,
2013-03-09 11:32:00,74.7,54.8,30.04,ENE,67,8.9,-999.0,50,-99.99,,,0.00,Acu-Link.com,2013-03-09 16:32:00,
2013-03-09 11:47:00,73.9,54.1,30.04,ESE,112,1.1,-999.0,50,-99.99,,,0.00,Acu-Link.com,2013-03-09 16:47:00,
2013-03-09 12:02:00,74.3,54.4,30.03,ENE,67,3.7,-999.0,50,-99.99,,,0.00,Acu-Link.com,2013-03-09 17:02:00,
2013-03-09 12:17:00,74.1,54.3,30.03,ENE,67,6.3,-999.0,50,-99.99,,,0.00,Acu-Link.com,2013-03-09 17:17:00,
2013-03-09 12:32:00,73.2,55.5,30.02,ENE,67,6.8,-999.0,54,-99.99,,,0.00,Acu-Link.com,2013-03-09 17:32:00,
2013-03-09 12:47:00,74.1,55.3,30.02,NE,45,7.3,-999.0,52,-99.99,,,0.00,Acu-Link.com,2013-03-09 17:47:00,
2013-03-09 13:02:00,73.8,56.1,30.02,East,90,3.2,-999.0,54,-99.99,,,0.00,Acu-Link.com,2013-03-09 18:02:00,
2013-03-09 13:18:00,73.6,55.9,30.01,ESE,112,3.2,-999.0,54,-99.99,,,0.00,Acu-Link.com,2013-03-09 18:18:00,
2013-03-09 13:33:00,73.0,55.9,30.00,East,90,8.9,-999.0,55,-99.99,,,0.00,Acu-Link.com,2013-03-09 18:33:00,
2013-03-09 13:48:00,72.5,55.4,30.00,East,90,6.3,-999.0,55,-99.99,,,0.00,Acu-Link.com,2013-03-09 18:48:00,
2013-03-09 14:03:00,71.6,55.1,29.99,ENE,67,6.3,-999.0,56,-99.99,,,0.00,Acu-Link.com,2013-03-09 19:03:00,
2013-03-09 14:18:00,71.8,55.7,30.00,NE,45,10.9,-999.0,57,-99.99,,,0.00,Acu-Link.com,2013-03-09 19:18:00,
2013-03-09 14:33:00,71.4,55.4,30.00,NE,45,5.3,-999.0,57,-99.99,,,0.00,Acu-Link.com,2013-03-09 19:33:00,
2013-03-09 14:48:00,71.1,55.6,30.00,NE,45,5.8,-999.0,58,-99.99,,,0.00,Acu-Link.com,2013-03-09 19:48:00,
2013-03-09 15:03:00,72.3,55.7,29.99,NE,45,9.9,-999.0,56,-99.99,,,0.00,Acu-Link.com,2013-03-09 20:03:00,
2013-03-09 15:19:00,71.6,55.1,29.98,NE,45,9.9,-999.0,56,-99.99,,,0.00,Acu-Link.com,2013-03-09 20:19:00,
2013-03-09 15:34:00,71.8,55.2,29.98,East,90,15.5,-999.0,56,-99.99,,,0.00,Acu-Link.com,2013-03-09 20:34:00,
2013-03-09 15:49:00,70.7,54.2,29.98,NE,45,10.4,-999.0,56,-99.99,,,0.00,Acu-Link.com,2013-03-09 20:49:00,
2013-03-09 16:04:00,69.8,54.3,29.98,ENE,67,11.9,-999.0,58,-99.99,,,0.00,Acu-Link.com,2013-03-09 21:04:00,
2013-03-09 16:19:00,69.8,53.9,29.99,NE,45,10.4,-999.0,57,-99.99,,,0.00,Acu-Link.com,2013-03-09 21:19:00,
2013-03-09 16:34:00,70.2,53.8,29.99,NE,45,9.9,-999.0,56,-99.99,,,0.00,Acu-Link.com,2013-03-09 21:34:00,
2013-03-09 16:49:00,69.6,52.7,29.98,ENE,67,12.5,-999.0,55,-99.99,,,0.00,Acu-Link.com,2013-03-09 21:49:00,
2013-03-09 17:04:00,69.1,52.7,29.99,ENE,67,7.8,-999.0,56,-99.99,,,0.00,Acu-Link.com,2013-03-09 22:04:00,
2013-03-09 17:19:00,68.7,52.4,30.00,NE,45,6.3,-999.0,56,-99.99,,,0.00,Acu-Link.com,2013-03-09 22:19:00,
2013-03-09 17:35:00,68.4,51.6,30.00,East,90,4.2,-999.0,55,-99.99,,,0.00,Acu-Link.com,2013-03-09 22:35:00,
2013-03-09 17:50:00,68.2,52.4,30.00,East,90,7.3,-999.0,57,-99.99,,,0.00,Acu-Link.com,2013-03-09 22:50:00,
2013-03-09 18:05:00,67.8,52.5,30.01,East,90,7.3,-999.0,58,-99.99,,,0.00,Acu-Link.com,2013-03-09 23:05:00,
2013-03-09 18:20:00,67.6,52.3,30.01,NE,45,5.3,-999.0,58,-99.99,,,0.00,Acu-Link.com,2013-03-09 23:20:00,
2013-03-09 18:35:00,67.5,52.7,30.01,ENE,67,5.3,-999.0,59,-99.99,,,0.00,Acu-Link.com,2013-03-09 23:35:00,
2013-03-09 18:50:00,67.3,52.5,30.00,ENE,67,5.8,-999.0,59,-99.99,,,0.00,Acu-Link.com,2013-03-09 23:50:00,
2013-03-09 19:05:00,66.9,52.1,30.00,East,90,4.7,-999.0,59,-99.99,,,0.00,Acu-Link.com,2013-03-10 00:05:00,
2013-03-09 19:20:00,66.6,52.3,30.00,ENE,67,6.8,-999.0,60,-99.99,,,0.00,Acu-Link.com,2013-03-10 00:20:00,
2013-03-09 19:35:00,66.6,52.3,30.01,NNE,22,7.8,-999.0,60,-99.99,,,0.00,Acu-Link.com,2013-03-10 00:35:00,
2013-03-09 19:51:00,66.4,52.5,30.02,East,90,9.4,-999.0,61,-99.99,,,0.00,Acu-Link.com,2013-03-10 00:51:00,
2013-03-09 20:06:00,66.6,52.7,30.01,NE,45,5.8,-999.0,61,-99.99,,,0.00,Acu-Link.com,2013-03-10 01:06:00,
2013-03-09 20:21:00,66.2,52.3,30.02,NE,45,3.2,-999.0,61,-99.99,,,0.00,Acu-Link.com,2013-03-10 01:21:00,
2013-03-09 20:36:00,66.4,52.5,30.03,ENE,67,5.8,-999.0,61,-99.99,,,0.00,Acu-Link.com,2013-03-10 01:36:00,
2013-03-09 20:51:00,66.4,53.0,30.03,East,90,7.8,-999.0,62,-99.99,,,0.00,Acu-Link.com,2013-03-10 01:51:00,
2013-03-09 21:06:00,66.4,52.5,30.04,NE,45,5.8,-999.0,61,-99.99,,,0.00,Acu-Link.com,2013-03-10 02:06:00,
2013-03-09 21:21:00,66.2,52.3,30.04,ENE,67,4.7,-999.0,61,-99.99,,,0.00,Acu-Link.com,2013-03-10 02:21:00,
2013-03-09 21:37:00,66.0,52.6,30.04,ENE,67,3.7,-999.0,62,-99.99,,,0.00,Acu-Link.com,2013-03-10 02:37:00,
2013-03-09 21:52:00,66.0,53.0,30.04,ENE,67,4.2,-999.0,63,-99.99,,,0.00,Acu-Link.com,2013-03-10 02:52:00,
2013-03-09 22:07:00,65.7,53.6,30.04,NE,45,2.7,-999.0,65,-99.99,,,0.00,Acu-Link.com,2013-03-10 03:07:00,
2013-03-09 22:22:00,65.3,53.2,30.03,NE,45,1.7,-999.0,65,-99.99,,,0.00,Acu-Link.com,2013-03-10 03:22:00,
2013-03-09 22:37:00,65.7,53.2,30.02,East,90,3.2,-999.0,64,-99.99,,,0.00,Acu-Link.com,2013-03-10 03:37:00,
2013-03-09 22:52:00,66.2,53.2,30.02,NE,45,5.3,-999.0,63,-99.99,,,0.00,Acu-Link.com,2013-03-10 03:52:00,
2013-03-09 23:07:00,66.4,53.0,30.02,ENE,67,2.7,-999.0,62,-99.99,,,0.00,Acu-Link.com,2013-03-10 04:07:00,
2013-03-09 23:23:00,66.2,52.3,30.02,NE,45,4.7,-999.0,61,-99.99,,,0.00,Acu-Link.com,2013-03-10 04:23:00,
2013-03-09 23:38:00,65.8,52.4,30.02,NE,45,3.2,-999.0,62,-99.99,,,0.00,Acu-Link.com,2013-03-10 04:38:00,
2013-03-09 23:53:00,66.0,53.0,30.03,ENE,67,2.7,-999.0,63,-99.99,,,0.00,Acu-Link.com,2013-03-10 04:53:00,